sensor_id;sensor_type;location;lat;lon;timestamp;P1;durP1;ratioP1;P2;durP2;ratioP2
10100;SDS011;5090;51.258;4.436;2022-11-10T00:02:12;17.30;;;4.73;;
10100;SDS011;5090;51.258;4.436;2022-11-10T00:04:41;15.93;;;4.20;;
10100;SDS011;5090;51.258;4.436;2022-11-10T00:07:09;13.73;;;2.67;;
10100;SDS011;5090;51.258;4.436;2022-11-10T00:09:37;22.47;;;3.33;;
10100;SDS011;5090;51.258;4.436;2022-11-10T00:32:28;11.33;;;3.33;;
10100;SDS011;5090;51.258;4.436;2022-11-10T00:34:56;17.57;;;3.57;;
10100;SDS011;5090;51.258;4.436;2022-11-10T00:40:17;17.93;;;3.20;;
10100;SDS011;5090;51.258;4.436;2022-11-10T01:03:11;18.80;;;3.90;;
10100;SDS011;5090;51.258;4.436;2022-11-10T01:05:36;22.40;;;3.97;;
10100;SDS011;5090;51.258;4.436;2022-11-10T01:08:04;17.37;;;4.00;;
10100;SDS011;5090;51.258;4.436;2022-11-10T01:10:33;14.23;;;3.73;;
10100;SDS011;5090;51.258;4.436;2022-11-10T01:13:01;17.83;;;4.23;;
10100;SDS011;5090;51.258;4.436;2022-11-10T01:15:29;25.30;;;4.17;;
10100;SDS011;5090;51.258;4.436;2022-11-10T01:17:57;17.30;;;3.57;;
10100;SDS011;5090;51.258;4.436;2022-11-10T01:20:26;14.87;;;3.60;;
10100;SDS011;5090;51.258;4.436;2022-11-10T01:22:54;14.93;;;3.87;;
10100;SDS011;5090;51.258;4.436;2022-11-10T01:25:22;16.20;;;3.57;;
10100;SDS011;5090;51.258;4.436;2022-11-10T01:27:50;11.50;;;3.13;;
10100;SDS011;5090;51.258;4.436;2022-11-10T01:30:19;20.93;;;3.13;;
10100;SDS011;5090;51.258;4.436;2022-11-10T01:32:47;14.17;;;3.03;;
10100;SDS011;5090;51.258;4.436;2022-11-10T01:35:15;16.07;;;3.50;;
10100;SDS011;5090;51.258;4.436;2022-11-10T01:37:43;13.33;;;3.10;;
10100;SDS011;5090;51.258;4.436;2022-11-10T01:40:12;15.67;;;3.50;;
10100;SDS011;5090;51.258;4.436;2022-11-10T01:42:43;12.63;;;3.70;;
10100;SDS011;5090;51.258;4.436;2022-11-10T01:47:44;13.27;;;3.30;;
10100;SDS011;5090;51.258;4.436;2022-11-10T01:50:13;13.00;;;3.23;;
10100;SDS011;5090;51.258;4.436;2022-11-10T01:52:41;11.37;;;2.80;;
10100;SDS011;5090;51.258;4.436;2022-11-10T01:55:09;20.00;;;3.63;;
10100;SDS011;5090;51.258;4.436;2022-11-10T01:57:37;15.57;;;3.03;;
10100;SDS011;5090;51.258;4.436;2022-11-10T02:00:06;17.23;;;3.37;;
10100;SDS011;5090;51.258;4.436;2022-11-10T02:02:36;14.83;;;3.43;;
10100;SDS011;5090;51.258;4.436;2022-11-10T02:05:03;16.00;;;3.23;;
10100;SDS011;5090;51.258;4.436;2022-11-10T02:07:30;15.37;;;3.20;;
10100;SDS011;5090;51.258;4.436;2022-11-10T02:10:02;16.10;;;4.17;;
10100;SDS011;5090;51.258;4.436;2022-11-10T02:12:30;14.33;;;3.13;;
10100;SDS011;5090;51.258;4.436;2022-11-10T02:15:03;11.87;;;3.37;;
10100;SDS011;5090;51.258;4.436;2022-11-10T02:17:31;13.90;;;2.87;;
10100;SDS011;5090;51.258;4.436;2022-11-10T02:20:00;8.00;;;2.67;;
10100;SDS011;5090;51.258;4.436;2022-11-10T02:22:28;14.93;;;2.73;;
10100;SDS011;5090;51.258;4.436;2022-11-10T02:24:56;14.27;;;3.13;;
10100;SDS011;5090;51.258;4.436;2022-11-10T02:27:24;13.97;;;2.93;;
10100;SDS011;5090;51.258;4.436;2022-11-10T02:29:52;16.27;;;3.03;;
10100;SDS011;5090;51.258;4.436;2022-11-10T02:32:21;15.23;;;3.23;;
10100;SDS011;5090;51.258;4.436;2022-11-10T02:34:49;15.43;;;3.07;;
10100;SDS011;5090;51.258;4.436;2022-11-10T02:37:17;14.07;;;2.83;;
10100;SDS011;5090;51.258;4.436;2022-11-10T02:39:45;16.20;;;3.23;;
10100;SDS011;5090;51.258;4.436;2022-11-10T02:42:13;7.83;;;3.23;;
10100;SDS011;5090;51.258;4.436;2022-11-10T02:44:42;16.43;;;3.37;;
10100;SDS011;5090;51.258;4.436;2022-11-10T02:47:10;11.20;;;2.50;;
10100;SDS011;5090;51.258;4.436;2022-11-10T02:49:38;14.37;;;3.60;;
10100;SDS011;5090;51.258;4.436;2022-11-10T02:52:06;17.10;;;3.23;;
10100;SDS011;5090;51.258;4.436;2022-11-10T02:54:34;15.40;;;3.43;;
10100;SDS011;5090;51.258;4.436;2022-11-10T02:57:03;12.40;;;3.00;;
10100;SDS011;5090;51.258;4.436;2022-11-10T02:59:31;13.83;;;2.97;;
10100;SDS011;5090;51.258;4.436;2022-11-10T03:02:00;15.43;;;3.43;;
10100;SDS011;5090;51.258;4.436;2022-11-10T03:04:28;10.83;;;3.10;;
10100;SDS011;5090;51.258;4.436;2022-11-10T03:06:56;16.47;;;3.43;;
10100;SDS011;5090;51.258;4.436;2022-11-10T03:12:23;14.77;;;3.50;;
10100;SDS011;5090;51.258;4.436;2022-11-10T03:14:52;18.87;;;3.07;;
10100;SDS011;5090;51.258;4.436;2022-11-10T03:17:20;13.20;;;3.67;;
10100;SDS011;5090;51.258;4.436;2022-11-10T03:19:48;17.13;;;3.50;;
10100;SDS011;5090;51.258;4.436;2022-11-10T03:22:16;16.77;;;3.50;;
10100;SDS011;5090;51.258;4.436;2022-11-10T03:24:45;11.00;;;3.37;;
10100;SDS011;5090;51.258;4.436;2022-11-10T03:27:13;13.93;;;3.73;;
10100;SDS011;5090;51.258;4.436;2022-11-10T03:29:41;23.07;;;4.07;;
10100;SDS011;5090;51.258;4.436;2022-11-10T03:32:09;15.77;;;3.93;;
10100;SDS011;5090;51.258;4.436;2022-11-10T03:34:37;16.07;;;4.00;;
10100;SDS011;5090;51.258;4.436;2022-11-10T03:37:06;14.97;;;4.00;;
10100;SDS011;5090;51.258;4.436;2022-11-10T03:39:34;18.80;;;3.07;;
10100;SDS011;5090;51.258;4.436;2022-11-10T03:42:02;15.77;;;3.70;;
10100;SDS011;5090;51.258;4.436;2022-11-10T03:44:30;18.87;;;4.03;;
10100;SDS011;5090;51.258;4.436;2022-11-10T03:46:58;18.43;;;3.93;;
10100;SDS011;5090;51.258;4.436;2022-11-10T03:49:27;20.37;;;3.90;;
10100;SDS011;5090;51.258;4.436;2022-11-10T03:51:55;14.20;;;3.37;;
10100;SDS011;5090;51.258;4.436;2022-11-10T03:54:23;18.80;;;4.70;;
10100;SDS011;5090;51.258;4.436;2022-11-10T03:56:52;22.00;;;3.83;;
10100;SDS011;5090;51.258;4.436;2022-11-10T03:59:20;19.50;;;4.40;;
10100;SDS011;5090;51.258;4.436;2022-11-10T04:01:48;12.80;;;3.30;;
10100;SDS011;5090;51.258;4.436;2022-11-10T04:04:17;13.63;;;2.90;;
10100;SDS011;5090;51.258;4.436;2022-11-10T04:06:51;14.90;;;4.50;;
10100;SDS011;5090;51.258;4.436;2022-11-10T04:09:25;18.70;;;3.80;;
10100;SDS011;5090;51.258;4.436;2022-11-10T04:11:53;17.97;;;3.53;;
10100;SDS011;5090;51.258;4.436;2022-11-10T04:14:27;16.23;;;3.50;;
10100;SDS011;5090;51.258;4.436;2022-11-10T04:17:01;16.80;;;3.50;;
10100;SDS011;5090;51.258;4.436;2022-11-10T04:19:29;16.07;;;3.70;;
10100;SDS011;5090;51.258;4.436;2022-11-10T04:21:57;13.47;;;3.27;;
10100;SDS011;5090;51.258;4.436;2022-11-10T04:24:26;17.60;;;3.60;;
10100;SDS011;5090;51.258;4.436;2022-11-10T04:26:54;15.50;;;3.27;;
10100;SDS011;5090;51.258;4.436;2022-11-10T04:29:22;18.87;;;3.10;;
10100;SDS011;5090;51.258;4.436;2022-11-10T04:31:50;19.33;;;3.63;;
10100;SDS011;5090;51.258;4.436;2022-11-10T04:34:19;15.63;;;3.50;;
10100;SDS011;5090;51.258;4.436;2022-11-10T04:36:47;19.63;;;3.40;;
10100;SDS011;5090;51.258;4.436;2022-11-10T04:39:15;13.53;;;3.10;;
10100;SDS011;5090;51.258;4.436;2022-11-10T04:41:43;20.47;;;4.00;;
10100;SDS011;5090;51.258;4.436;2022-11-10T04:44:11;16.90;;;2.77;;
10100;SDS011;5090;51.258;4.436;2022-11-10T04:46:40;21.77;;;4.60;;
10100;SDS011;5090;51.258;4.436;2022-11-10T04:49:08;15.50;;;3.37;;
10100;SDS011;5090;51.258;4.436;2022-11-10T04:51:36;22.73;;;4.00;;
10100;SDS011;5090;51.258;4.436;2022-11-10T04:54:05;18.13;;;3.50;;
10100;SDS011;5090;51.258;4.436;2022-11-10T04:56:33;22.27;;;5.00;;
10100;SDS011;5090;51.258;4.436;2022-11-10T04:59:01;16.33;;;4.03;;
10100;SDS011;5090;51.258;4.436;2022-11-10T05:01:29;16.03;;;3.50;;
10100;SDS011;5090;51.258;4.436;2022-11-10T05:03:57;15.40;;;3.83;;
10100;SDS011;5090;51.258;4.436;2022-11-10T05:06:26;14.67;;;4.07;;
10100;SDS011;5090;51.258;4.436;2022-11-10T05:08:54;26.47;;;3.97;;
10100;SDS011;5090;51.258;4.436;2022-11-10T05:11:22;18.80;;;3.53;;
10100;SDS011;5090;51.258;4.436;2022-11-10T05:13:50;17.20;;;3.27;;
10100;SDS011;5090;51.258;4.436;2022-11-10T05:16:18;17.67;;;3.90;;
10100;SDS011;5090;51.258;4.436;2022-11-10T05:18:47;14.17;;;3.77;;
10100;SDS011;5090;51.258;4.436;2022-11-10T05:21:15;13.50;;;3.33;;
10100;SDS011;5090;51.258;4.436;2022-11-10T05:23:43;25.93;;;3.70;;
10100;SDS011;5090;51.258;4.436;2022-11-10T05:26:13;20.50;;;4.60;;
10100;SDS011;5090;51.258;4.436;2022-11-10T05:28:40;11.73;;;2.70;;
10100;SDS011;5090;51.258;4.436;2022-11-10T05:31:08;16.77;;;3.93;;
10100;SDS011;5090;51.258;4.436;2022-11-10T05:33:37;12.77;;;3.13;;
10100;SDS011;5090;51.258;4.436;2022-11-10T05:36:05;18.27;;;3.70;;
10100;SDS011;5090;51.258;4.436;2022-11-10T05:38:33;19.33;;;3.20;;
10100;SDS011;5090;51.258;4.436;2022-11-10T05:41:01;23.17;;;3.53;;
10100;SDS011;5090;51.258;4.436;2022-11-10T05:43:30;22.33;;;3.63;;
10100;SDS011;5090;51.258;4.436;2022-11-10T05:45:58;19.73;;;3.13;;
10100;SDS011;5090;51.258;4.436;2022-11-10T05:48:26;14.77;;;2.73;;
10100;SDS011;5090;51.258;4.436;2022-11-10T05:50:55;13.80;;;3.50;;
10100;SDS011;5090;51.258;4.436;2022-11-10T05:53:23;19.93;;;3.93;;
10100;SDS011;5090;51.258;4.436;2022-11-10T05:55:51;18.10;;;3.47;;
10100;SDS011;5090;51.258;4.436;2022-11-10T05:58:19;21.63;;;3.73;;
10100;SDS011;5090;51.258;4.436;2022-11-10T06:00:47;13.17;;;3.00;;
10100;SDS011;5090;51.258;4.436;2022-11-10T06:03:16;14.67;;;3.63;;
10100;SDS011;5090;51.258;4.436;2022-11-10T06:05:44;18.33;;;3.60;;
10100;SDS011;5090;51.258;4.436;2022-11-10T06:08:12;19.13;;;3.10;;
10100;SDS011;5090;51.258;4.436;2022-11-10T06:10:40;17.10;;;3.13;;
10100;SDS011;5090;51.258;4.436;2022-11-10T06:33:31;15.33;;;3.90;;
10100;SDS011;5090;51.258;4.436;2022-11-10T06:36:00;11.13;;;2.97;;
10100;SDS011;5090;51.258;4.436;2022-11-10T06:38:28;13.20;;;3.50;;
10100;SDS011;5090;51.258;4.436;2022-11-10T07:04:14;31.43;;;4.43;;
10100;SDS011;5090;51.258;4.436;2022-11-10T07:06:42;27.20;;;3.50;;
10100;SDS011;5090;51.258;4.436;2022-11-10T07:09:10;19.43;;;4.10;;
10100;SDS011;5090;51.258;4.436;2022-11-10T07:11:38;14.00;;;3.63;;
10100;SDS011;5090;51.258;4.436;2022-11-10T07:14:07;20.63;;;3.40;;
10100;SDS011;5090;51.258;4.436;2022-11-10T07:16:35;20.10;;;4.10;;
10100;SDS011;5090;51.258;4.436;2022-11-10T07:19:03;18.97;;;3.57;;
10100;SDS011;5090;51.258;4.436;2022-11-10T07:21:32;21.47;;;4.07;;
10100;SDS011;5090;51.258;4.436;2022-11-10T07:24:00;23.37;;;4.10;;
10100;SDS011;5090;51.258;4.436;2022-11-10T07:26:28;20.13;;;4.10;;
10100;SDS011;5090;51.258;4.436;2022-11-10T07:28:56;17.93;;;3.53;;
10100;SDS011;5090;51.258;4.436;2022-11-10T07:31:25;15.80;;;3.27;;
10100;SDS011;5090;51.258;4.436;2022-11-10T07:33:53;18.67;;;3.70;;
10100;SDS011;5090;51.258;4.436;2022-11-10T07:36:21;24.37;;;4.13;;
10100;SDS011;5090;51.258;4.436;2022-11-10T07:38:49;21.23;;;3.87;;
10100;SDS011;5090;51.258;4.436;2022-11-10T07:41:17;19.67;;;4.00;;
10100;SDS011;5090;51.258;4.436;2022-11-10T07:43:46;15.20;;;3.97;;
10100;SDS011;5090;51.258;4.436;2022-11-10T07:46:14;17.33;;;3.80;;
10100;SDS011;5090;51.258;4.436;2022-11-10T07:48:42;17.03;;;4.27;;
10100;SDS011;5090;51.258;4.436;2022-11-10T07:51:10;23.33;;;5.10;;
10100;SDS011;5090;51.258;4.436;2022-11-10T07:53:38;22.60;;;4.23;;
10100;SDS011;5090;51.258;4.436;2022-11-10T07:56:07;16.93;;;4.03;;
10100;SDS011;5090;51.258;4.436;2022-11-10T07:58:35;15.13;;;3.60;;
10100;SDS011;5090;51.258;4.436;2022-11-10T08:01:03;17.57;;;4.40;;
10100;SDS011;5090;51.258;4.436;2022-11-10T08:03:31;18.30;;;3.90;;
10100;SDS011;5090;51.258;4.436;2022-11-10T08:06:00;15.20;;;3.50;;
10100;SDS011;5090;51.258;4.436;2022-11-10T08:08:28;22.87;;;3.80;;
10100;SDS011;5090;51.258;4.436;2022-11-10T08:10:56;17.53;;;4.10;;
10100;SDS011;5090;51.258;4.436;2022-11-10T08:13:24;18.67;;;4.30;;
10100;SDS011;5090;51.258;4.436;2022-11-10T08:15:52;19.60;;;3.73;;
10100;SDS011;5090;51.258;4.436;2022-11-10T08:18:21;19.63;;;3.67;;
10100;SDS011;5090;51.258;4.436;2022-11-10T08:20:49;15.13;;;3.40;;
10100;SDS011;5090;51.258;4.436;2022-11-10T08:23:17;18.90;;;3.70;;
10100;SDS011;5090;51.258;4.436;2022-11-10T08:25:45;15.77;;;2.87;;
10100;SDS011;5090;51.258;4.436;2022-11-10T08:28:14;17.20;;;3.53;;
10100;SDS011;5090;51.258;4.436;2022-11-10T08:30:43;14.27;;;3.60;;
10100;SDS011;5090;51.258;4.436;2022-11-10T08:33:10;12.47;;;3.97;;
10100;SDS011;5090;51.258;4.436;2022-11-10T08:35:40;15.73;;;3.40;;
10100;SDS011;5090;51.258;4.436;2022-11-10T08:38:08;14.87;;;2.80;;
10100;SDS011;5090;51.258;4.436;2022-11-10T08:40:36;13.13;;;3.07;;
10100;SDS011;5090;51.258;4.436;2022-11-10T08:43:04;17.70;;;3.43;;
10100;SDS011;5090;51.258;4.436;2022-11-10T08:45:34;18.37;;;3.83;;
10100;SDS011;5090;51.258;4.436;2022-11-10T08:48:03;14.17;;;3.53;;
10100;SDS011;5090;51.258;4.436;2022-11-10T08:50:30;18.40;;;4.60;;
10100;SDS011;5090;51.258;4.436;2022-11-10T08:53:00;12.90;;;3.17;;
10100;SDS011;5090;51.258;4.436;2022-11-10T08:55:27;13.23;;;3.27;;
10100;SDS011;5090;51.258;4.436;2022-11-10T08:57:57;16.13;;;3.60;;
10100;SDS011;5090;51.258;4.436;2022-11-10T09:00:25;13.23;;;3.60;;
10100;SDS011;5090;51.258;4.436;2022-11-10T09:02:54;15.67;;;3.60;;
10100;SDS011;5090;51.258;4.436;2022-11-10T09:05:22;9.63;;;2.90;;
10100;SDS011;5090;51.258;4.436;2022-11-10T09:07:50;13.07;;;3.50;;
10100;SDS011;5090;51.258;4.436;2022-11-10T09:10:18;11.37;;;2.83;;
10100;SDS011;5090;51.258;4.436;2022-11-10T09:12:46;14.57;;;3.37;;
10100;SDS011;5090;51.258;4.436;2022-11-10T09:15:15;13.63;;;2.90;;
10100;SDS011;5090;51.258;4.436;2022-11-10T09:17:43;13.43;;;2.70;;
10100;SDS011;5090;51.258;4.436;2022-11-10T09:20:11;10.10;;;2.60;;
10100;SDS011;5090;51.258;4.436;2022-11-10T09:22:39;10.37;;;3.07;;
10100;SDS011;5090;51.258;4.436;2022-11-10T09:25:08;12.43;;;2.97;;
10100;SDS011;5090;51.258;4.436;2022-11-10T09:27:37;14.20;;;3.47;;
10100;SDS011;5090;51.258;4.436;2022-11-10T09:30:05;14.40;;;3.23;;
10100;SDS011;5090;51.258;4.436;2022-11-10T09:32:33;15.97;;;3.30;;
10100;SDS011;5090;51.258;4.436;2022-11-10T09:35:02;12.17;;;2.90;;
10100;SDS011;5090;51.258;4.436;2022-11-10T09:37:30;12.80;;;3.20;;
10100;SDS011;5090;51.258;4.436;2022-11-10T09:39:58;16.47;;;3.23;;
10100;SDS011;5090;51.258;4.436;2022-11-10T09:42:31;10.47;;;3.03;;
10100;SDS011;5090;51.258;4.436;2022-11-10T09:45:01;16.80;;;3.43;;
10100;SDS011;5090;51.258;4.436;2022-11-10T09:47:33;16.53;;;3.93;;
10100;SDS011;5090;51.258;4.436;2022-11-10T09:49:59;20.03;;;3.13;;
10100;SDS011;5090;51.258;4.436;2022-11-10T09:52:28;12.77;;;3.33;;
10100;SDS011;5090;51.258;4.436;2022-11-10T09:54:56;14.60;;;3.00;;
10100;SDS011;5090;51.258;4.436;2022-11-10T09:57:24;19.13;;;3.40;;
10100;SDS011;5090;51.258;4.436;2022-11-10T09:59:52;12.03;;;4.03;;
10100;SDS011;5090;51.258;4.436;2022-11-10T10:02:29;13.10;;;3.60;;
10100;SDS011;5090;51.258;4.436;2022-11-10T10:06:10;12.87;;;3.17;;
10100;SDS011;5090;51.258;4.436;2022-11-10T10:07:57;13.90;;;3.20;;
10100;SDS011;5090;51.258;4.436;2022-11-10T10:10:29;11.43;;;2.20;;
10100;SDS011;5090;51.258;4.436;2022-11-10T10:13:13;11.33;;;1.90;;
10100;SDS011;5090;51.258;4.436;2022-11-10T10:15:41;14.27;;;3.00;;
10100;SDS011;5090;51.258;4.436;2022-11-10T10:23:25;10.77;;;2.83;;
10100;SDS011;5090;51.258;4.436;2022-11-10T10:25:52;13.57;;;2.40;;
10100;SDS011;5090;51.258;4.436;2022-11-10T10:28:30;8.33;;;2.30;;
10100;SDS011;5090;51.258;4.436;2022-11-10T10:31:00;9.17;;;2.20;;
10100;SDS011;5090;51.258;4.436;2022-11-10T10:33:27;12.60;;;2.37;;
10100;SDS011;5090;51.258;4.436;2022-11-10T10:35:55;8.57;;;2.50;;
10100;SDS011;5090;51.258;4.436;2022-11-10T10:38:28;16.73;;;2.93;;
10100;SDS011;5090;51.258;4.436;2022-11-10T10:40:56;10.60;;;2.57;;
10100;SDS011;5090;51.258;4.436;2022-11-10T10:43:23;16.17;;;2.70;;
10100;SDS011;5090;51.258;4.436;2022-11-10T10:46:03;13.97;;;2.90;;
10100;SDS011;5090;51.258;4.436;2022-11-10T10:48:31;13.83;;;2.50;;
10100;SDS011;5090;51.258;4.436;2022-11-10T10:50:59;11.53;;;2.80;;
10100;SDS011;5090;51.258;4.436;2022-11-10T10:53:27;18.40;;;3.67;;
10100;SDS011;5090;51.258;4.436;2022-11-10T10:55:58;9.30;;;2.17;;
10100;SDS011;5090;51.258;4.436;2022-11-10T10:58:27;13.43;;;2.47;;
10100;SDS011;5090;51.258;4.436;2022-11-10T11:01:03;16.97;;;2.60;;
10100;SDS011;5090;51.258;4.436;2022-11-10T11:03:36;11.83;;;3.00;;
10100;SDS011;5090;51.258;4.436;2022-11-10T11:06:06;12.13;;;2.30;;
10100;SDS011;5090;51.258;4.436;2022-11-10T11:08:36;8.17;;;1.87;;
10100;SDS011;5090;51.258;4.436;2022-11-10T11:11:05;6.43;;;1.97;;
10100;SDS011;5090;51.258;4.436;2022-11-10T11:13:33;12.10;;;2.57;;
10100;SDS011;5090;51.258;4.436;2022-11-10T11:16:03;9.60;;;1.77;;
10100;SDS011;5090;51.258;4.436;2022-11-10T11:18:31;7.57;;;2.90;;
10100;SDS011;5090;51.258;4.436;2022-11-10T11:21:04;14.27;;;2.30;;
10100;SDS011;5090;51.258;4.436;2022-11-10T11:26:27;16.40;;;3.33;;
10100;SDS011;5090;51.258;4.436;2022-11-10T11:29:01;8.00;;;2.00;;
10100;SDS011;5090;51.258;4.436;2022-11-10T11:31:39;15.80;;;3.13;;
10100;SDS011;5090;51.258;4.436;2022-11-10T11:34:09;12.00;;;2.47;;
10100;SDS011;5090;51.258;4.436;2022-11-10T11:47:11;8.67;;;1.80;;
10100;SDS011;5090;51.258;4.436;2022-11-10T11:49:49;10.50;;;2.03;;
10100;SDS011;5090;51.258;4.436;2022-11-10T11:52:19;7.50;;;2.03;;
10100;SDS011;5090;51.258;4.436;2022-11-10T11:54:46;9.90;;;1.80;;
10100;SDS011;5090;51.258;4.436;2022-11-10T11:57:15;6.80;;;2.03;;
10100;SDS011;5090;51.258;4.436;2022-11-10T11:59:56;10.50;;;1.63;;
10100;SDS011;5090;51.258;4.436;2022-11-10T12:02:27;6.23;;;1.67;;
10100;SDS011;5090;51.258;4.436;2022-11-10T12:07:48;8.33;;;2.00;;
10100;SDS011;5090;51.258;4.436;2022-11-10T12:13:06;8.30;;;1.70;;
10100;SDS011;5090;51.258;4.436;2022-11-10T12:16:06;11.80;;;1.93;;
10100;SDS011;5090;51.258;4.436;2022-11-10T12:18:21;7.80;;;1.70;;
10100;SDS011;5090;51.258;4.436;2022-11-10T12:20:50;7.70;;;1.93;;
10100;SDS011;5090;51.258;4.436;2022-11-10T12:23:21;13.97;;;2.20;;
10100;SDS011;5090;51.258;4.436;2022-11-10T12:25:51;10.43;;;2.07;;
10100;SDS011;5090;51.258;4.436;2022-11-10T12:28:17;11.37;;;1.70;;
10100;SDS011;5090;51.258;4.436;2022-11-10T12:30:44;10.73;;;1.97;;
10100;SDS011;5090;51.258;4.436;2022-11-10T12:33:17;9.23;;;2.17;;
10100;SDS011;5090;51.258;4.436;2022-11-10T12:35:41;7.03;;;1.70;;
10100;SDS011;5090;51.258;4.436;2022-11-10T12:38:18;5.87;;;1.50;;
10100;SDS011;5090;51.258;4.436;2022-11-10T12:40:48;7.97;;;1.80;;
10100;SDS011;5090;51.258;4.436;2022-11-10T12:43:19;6.93;;;1.63;;
10100;SDS011;5090;51.258;4.436;2022-11-10T12:45:45;10.17;;;1.83;;
10100;SDS011;5090;51.258;4.436;2022-11-10T12:48:13;7.30;;;1.73;;
10100;SDS011;5090;51.258;4.436;2022-11-10T12:50:47;5.73;;;1.57;;
10100;SDS011;5090;51.258;4.436;2022-11-10T12:53:14;6.77;;;2.07;;
10100;SDS011;5090;51.258;4.436;2022-11-10T12:55:43;8.60;;;3.60;;
10100;SDS011;5090;51.258;4.436;2022-11-10T12:58:10;6.20;;;1.87;;
10100;SDS011;5090;51.258;4.436;2022-11-10T13:00:55;9.67;;;2.33;;
10100;SDS011;5090;51.258;4.436;2022-11-10T13:03:25;7.87;;;1.90;;
10100;SDS011;5090;51.258;4.436;2022-11-10T13:05:54;7.57;;;2.13;;
10100;SDS011;5090;51.258;4.436;2022-11-10T13:13:55;5.83;;;1.30;;
10100;SDS011;5090;51.258;4.436;2022-11-10T13:18:56;12.33;;;1.40;;
10100;SDS011;5090;51.258;4.436;2022-11-10T13:24:16;5.80;;;1.50;;
10100;SDS011;5090;51.258;4.436;2022-11-10T13:26:47;10.00;;;2.10;;
10100;SDS011;5090;51.258;4.436;2022-11-10T13:31:51;10.20;;;1.80;;
10100;SDS011;5090;51.258;4.436;2022-11-10T13:34:36;6.67;;;1.40;;
10100;SDS011;5090;51.258;4.436;2022-11-10T13:39:38;7.77;;;1.70;;
10100;SDS011;5090;51.258;4.436;2022-11-10T13:42:15;8.30;;;1.77;;
10100;SDS011;5090;51.258;4.436;2022-11-10T13:44:44;4.73;;;1.47;;
10100;SDS011;5090;51.258;4.436;2022-11-10T13:47:53;9.83;;;1.40;;
10100;SDS011;5090;51.258;4.436;2022-11-10T13:50:12;3.77;;;1.40;;
10100;SDS011;5090;51.258;4.436;2022-11-10T13:53:14;10.00;;;1.50;;
10100;SDS011;5090;51.258;4.436;2022-11-10T13:55:33;5.70;;;1.40;;
10100;SDS011;5090;51.258;4.436;2022-11-10T13:57:59;4.30;;;1.47;;
10100;SDS011;5090;51.258;4.436;2022-11-10T14:00:29;4.77;;;1.30;;
10100;SDS011;5090;51.258;4.436;2022-11-10T14:02:56;7.87;;;1.33;;
10100;SDS011;5090;51.258;4.436;2022-11-10T14:06:00;7.30;;;1.83;;
10100;SDS011;5090;51.258;4.436;2022-11-10T14:08:11;11.63;;;2.20;;
10100;SDS011;5090;51.258;4.436;2022-11-10T14:10:40;6.03;;;1.67;;
10100;SDS011;5090;51.258;4.436;2022-11-10T14:13:10;9.10;;;1.93;;
10100;SDS011;5090;51.258;4.436;2022-11-10T14:15:42;11.97;;;3.03;;
10100;SDS011;5090;51.258;4.436;2022-11-10T14:18:15;10.60;;;2.17;;
10100;SDS011;5090;51.258;4.436;2022-11-10T14:20:42;7.20;;;1.90;;
10100;SDS011;5090;51.258;4.436;2022-11-10T14:23:17;7.03;;;2.53;;
10100;SDS011;5090;51.258;4.436;2022-11-10T14:25:40;8.13;;;2.57;;
10100;SDS011;5090;51.258;4.436;2022-11-10T14:30:48;9.33;;;1.97;;
10100;SDS011;5090;51.258;4.436;2022-11-10T14:33:11;6.23;;;1.90;;
10100;SDS011;5090;51.258;4.436;2022-11-10T14:35:47;7.37;;;1.93;;
10100;SDS011;5090;51.258;4.436;2022-11-10T14:38:20;3.70;;;1.47;;
10100;SDS011;5090;51.258;4.436;2022-11-10T14:40:48;11.60;;;2.43;;
10100;SDS011;5090;51.258;4.436;2022-11-10T14:45:50;3.90;;;1.53;;
10100;SDS011;5090;51.258;4.436;2022-11-10T14:48:19;7.17;;;1.60;;
10100;SDS011;5090;51.258;4.436;2022-11-10T14:50:47;7.47;;;1.63;;
10100;SDS011;5090;51.258;4.436;2022-11-10T14:53:23;7.60;;;2.00;;
10100;SDS011;5090;51.258;4.436;2022-11-10T14:55:48;7.47;;;1.70;;
10100;SDS011;5090;51.258;4.436;2022-11-10T14:58:19;5.77;;;1.23;;
10100;SDS011;5090;51.258;4.436;2022-11-10T15:00:44;4.83;;;1.43;;
10100;SDS011;5090;51.258;4.436;2022-11-10T15:03:14;4.57;;;1.60;;
10100;SDS011;5090;51.258;4.436;2022-11-10T15:05:41;10.07;;;1.67;;
10100;SDS011;5090;51.258;4.436;2022-11-10T15:08:09;7.50;;;2.00;;
10100;SDS011;5090;51.258;4.436;2022-11-10T15:10:46;8.87;;;1.57;;
10100;SDS011;5090;51.258;4.436;2022-11-10T15:13:21;8.37;;;1.83;;
10100;SDS011;5090;51.258;4.436;2022-11-10T15:15:46;6.83;;;2.63;;
10100;SDS011;5090;51.258;4.436;2022-11-10T15:18:22;5.70;;;2.00;;
10100;SDS011;5090;51.258;4.436;2022-11-10T15:23:26;6.43;;;1.80;;
10100;SDS011;5090;51.258;4.436;2022-11-10T15:25:53;8.90;;;2.30;;
10100;SDS011;5090;51.258;4.436;2022-11-10T15:28:23;7.60;;;2.10;;
10100;SDS011;5090;51.258;4.436;2022-11-10T15:30:54;4.83;;;1.23;;
10100;SDS011;5090;51.258;4.436;2022-11-10T15:33:23;6.30;;;1.50;;
10100;SDS011;5090;51.258;4.436;2022-11-10T15:35:51;3.37;;;1.50;;
10100;SDS011;5090;51.258;4.436;2022-11-10T15:38:27;7.30;;;2.20;;
10100;SDS011;5090;51.258;4.436;2022-11-10T15:41:04;8.43;;;2.20;;
10100;SDS011;5090;51.258;4.436;2022-11-10T15:43:30;9.97;;;2.17;;
10100;SDS011;5090;51.258;4.436;2022-11-10T15:45:59;9.03;;;2.70;;
10100;SDS011;5090;51.258;4.436;2022-11-10T15:48:30;6.90;;;1.83;;
10100;SDS011;5090;51.258;4.436;2022-11-10T15:50:56;5.93;;;1.63;;
10100;SDS011;5090;51.258;4.436;2022-11-10T15:53:26;7.20;;;1.83;;
10100;SDS011;5090;51.258;4.436;2022-11-10T15:55:53;6.13;;;1.93;;
10100;SDS011;5090;51.258;4.436;2022-11-10T15:58:22;8.07;;;3.77;;
10100;SDS011;5090;51.258;4.436;2022-11-10T16:00:50;10.07;;;3.63;;
10100;SDS011;5090;51.258;4.436;2022-11-10T16:03:18;6.60;;;2.07;;
10100;SDS011;5090;51.258;4.436;2022-11-10T16:05:46;13.47;;;2.33;;
10100;SDS011;5090;51.258;4.436;2022-11-10T16:08:16;6.83;;;1.73;;
10100;SDS011;5090;51.258;4.436;2022-11-10T16:10:43;8.13;;;2.43;;
10100;SDS011;5090;51.258;4.436;2022-11-10T16:13:11;5.00;;;1.80;;
10100;SDS011;5090;51.258;4.436;2022-11-10T16:15:39;8.67;;;1.97;;
10100;SDS011;5090;51.258;4.436;2022-11-10T16:18:10;8.43;;;2.10;;
10100;SDS011;5090;51.258;4.436;2022-11-10T16:20:37;8.43;;;2.07;;
10100;SDS011;5090;51.258;4.436;2022-11-10T16:23:05;10.40;;;2.60;;
10100;SDS011;5090;51.258;4.436;2022-11-10T16:25:34;4.40;;;1.77;;
10100;SDS011;5090;51.258;4.436;2022-11-10T16:28:02;6.77;;;2.30;;
10100;SDS011;5090;51.258;4.436;2022-11-10T16:30:31;10.80;;;2.40;;
10100;SDS011;5090;51.258;4.436;2022-11-10T16:32:59;5.70;;;1.80;;
10100;SDS011;5090;51.258;4.436;2022-11-10T16:35:27;6.40;;;1.83;;
10100;SDS011;5090;51.258;4.436;2022-11-10T16:37:55;7.07;;;2.20;;
10100;SDS011;5090;51.258;4.436;2022-11-10T16:40:24;8.23;;;1.83;;
10100;SDS011;5090;51.258;4.436;2022-11-10T16:42:52;6.50;;;2.07;;
10100;SDS011;5090;51.258;4.436;2022-11-10T16:45:21;5.13;;;1.80;;
10100;SDS011;5090;51.258;4.436;2022-11-10T16:47:49;7.93;;;2.50;;
10100;SDS011;5090;51.258;4.436;2022-11-10T16:50:27;6.47;;;2.37;;
10100;SDS011;5090;51.258;4.436;2022-11-10T16:52:52;8.20;;;2.03;;
10100;SDS011;5090;51.258;4.436;2022-11-10T16:55:20;9.67;;;2.57;;
10100;SDS011;5090;51.258;4.436;2022-11-10T16:57:48;6.93;;;1.87;;
10100;SDS011;5090;51.258;4.436;2022-11-10T17:00:17;9.17;;;2.20;;
10100;SDS011;5090;51.258;4.436;2022-11-10T17:03:01;9.90;;;2.33;;
10100;SDS011;5090;51.258;4.436;2022-11-10T17:05:28;6.60;;;1.83;;
10100;SDS011;5090;51.258;4.436;2022-11-10T17:07:56;5.47;;;2.00;;
10100;SDS011;5090;51.258;4.436;2022-11-10T17:10:25;8.37;;;2.80;;
10100;SDS011;5090;51.258;4.436;2022-11-10T17:12:53;6.87;;;2.40;;
10100;SDS011;5090;51.258;4.436;2022-11-10T17:15:21;9.93;;;3.17;;
10100;SDS011;5090;51.258;4.436;2022-11-10T17:17:50;8.27;;;3.27;;
10100;SDS011;5090;51.258;4.436;2022-11-10T17:20:20;12.30;;;3.43;;
10100;SDS011;5090;51.258;4.436;2022-11-10T17:22:47;7.87;;;2.70;;
10100;SDS011;5090;51.258;4.436;2022-11-10T17:25:18;12.90;;;3.53;;
10100;SDS011;5090;51.258;4.436;2022-11-10T17:27:43;19.43;;;3.67;;